AWK weather

Wake Island Airfield
Wake Island, Wake Island, United States Minor Outlying Islands

Public forecast

Using degrees Celsius for public forecast. Weather courtesy of forecast.io.

METAR (pilot weather report)

Retrieved 2019/09/16 02:58 UTC (3 minutes ago):

PWAK 160258Z AUTO 06012KT 9999 FEW022 32/25 A2984 RMK AO2 SLP111 60000 T03170248 $

TAF (pilot weather forecast)

Retrieved 2019/09/15 22:03 UTC (5 hours ago):

TAF TAF PWAK 152200Z 1522/1704 08012KT 9999 FEW030 QNH2982INS BECMG 1703/1704 05015KT 9999 FEW025 QNH2980INS TX32/1601Z TN26/1617Z FOR MIL USE ONLY